Time;durP1;ratioP1;P1;durP2;ratioP2;P2;SDS_P1;SDS_P2;PMS_P1;PMS_P2;Temp;Humidity;BMP_temperature;BMP_pressure;BME280_temperature;BME280_humidity;BME280_pressure;Samples;Min_cycle;Max_cycle;Signal;HPM_P1;HPM_P2
2022/01/08 00:02:43;;;;;;;16.93;8.73;;;;;1.80;100334.00;;;;4992406;28;20788;-70
2022/01/08 00:05:29;;;;;;;25.33;9.03;;;;;1.70;100332.00;;;;4999254;28;20707;-70
2022/01/08 00:08:16;;;;;;;15.03;8.57;;;;;1.60;100335.00;;;;4997223;28;20234;-71
2022/01/08 00:11:06;;;;;;;15.23;8.50;;;;;1.70;100342.00;;;;4994557;28;20305;-71
2022/01/08 00:13:53;;;;;;;18.80;9.03;;;;;1.70;100346.00;;;;4998149;28;20234;-71
2022/01/08 00:16:39;;;;;;;14.63;8.07;;;;;1.60;100348.00;;;;5011824;28;20233;-71
2022/01/08 00:19:26;;;;;;;16.10;8.97;;;;;1.60;100336.00;;;;5019187;28;20236;-72
2022/01/08 00:22:12;;;;;;;14.80;8.90;;;;;1.60;100342.00;;;;5020666;28;20268;-71
2022/01/08 00:24:59;;;;;;;16.80;9.27;;;;;1.60;100344.00;;;;5020306;28;20771;-71
2022/01/08 00:27:46;;;;;;;15.77;9.03;;;;;1.60;100345.00;;;;5034682;28;20241;-71
2022/01/08 00:30:33;;;;;;;14.00;8.87;;;;;1.60;100352.00;;;;5019294;28;20230;-71
2022/01/08 00:33:20;;;;;;;15.40;9.87;;;;;1.50;100344.00;;;;5014536;28;20316;-71
2022/01/08 00:36:07;;;;;;;19.00;8.37;;;;;1.40;100361.00;;;;5008330;28;20233;-71
2022/01/08 00:38:54;;;;;;;17.07;8.90;;;;;1.50;100342.00;;;;5010768;28;20855;-71
2022/01/08 00:41:40;;;;;;;16.53;9.13;;;;;1.40;100358.00;;;;5008445;28;20581;-70
2022/01/08 00:44:27;;;;;;;14.93;8.97;;;;;1.40;100355.00;;;;5007933;28;20234;-71
2022/01/08 00:47:13;;;;;;;20.17;10.07;;;;;1.40;100353.00;;;;5017009;28;20685;-71
2022/01/08 00:50:00;;;;;;;16.07;9.33;;;;;1.40;100345.00;;;;5007698;28;20229;-72
2022/01/08 00:52:46;;;;;;;20.30;9.50;;;;;1.30;100355.00;;;;4999782;28;20320;-71
2022/01/08 00:55:33;;;;;;;16.27;9.40;;;;;1.40;100359.00;;;;5007247;28;20693;-69
2022/01/08 00:58:19;;;;;;;17.60;9.83;;;;;1.40;100350.00;;;;5008247;28;20230;-71
2022/01/08 01:01:07;;;;;;;23.10;9.33;;;;;1.40;100353.00;;;;5008030;28;20233;-71
2022/01/08 01:03:54;;;;;;;18.00;9.80;;;;;1.30;100356.00;;;;5020111;28;20286;-71
2022/01/08 01:06:40;;;;;;;17.57;9.43;;;;;1.30;100347.00;;;;5027903;28;20225;-71
2022/01/08 01:09:27;;;;;;;19.03;9.50;;;;;1.30;100351.00;;;;5006568;28;20851;-71
2022/01/08 01:12:13;;;;;;;16.60;9.87;;;;;1.30;100347.00;;;;4996525;28;20356;-69
2022/01/08 01:15:20;;;;;;;17.97;9.23;;;;;1.20;100343.00;;;;5022402;28;20287;-71
2022/01/08 01:18:09;;;;;;;20.17;10.20;;;;;1.30;100347.00;;;;5015681;28;20233;-73
2022/01/08 01:20:55;;;;;;;21.80;9.47;;;;;1.10;100349.00;;;;5017966;28;20233;-72
2022/01/08 01:23:43;;;;;;;14.63;8.40;;;;;1.10;100350.00;;;;5007628;28;20221;-71
2022/01/08 01:26:30;;;;;;;17.53;9.77;;;;;1.20;100353.00;;;;5004996;28;20225;-71
2022/01/08 01:29:30;;;;;;;18.73;9.90;;;;;1.20;100352.00;;;;5012524;28;20304;-71
2022/01/08 01:41:40;;;;;;;19.40;10.73;;;;;1.00;100349.00;;;;5013588;28;20909;-71
2022/01/08 01:47:36;;;;;;;17.47;9.13;;;;;1.10;100322.00;;;;5011594;28;20238;-71
2022/01/08 01:50:24;;;;;;;21.27;10.70;;;;;1.10;100357.00;;;;5016345;28;20716;-71
2022/01/08 01:53:10;;;;;;;20.17;9.50;;;;;1.10;100360.00;;;;5023763;28;20229;-71
2022/01/08 01:55:56;;;;;;;21.43;9.43;;;;;1.00;100360.00;;;;5014202;28;20280;-69
2022/01/08 01:58:43;;;;;;;19.53;9.50;;;;;1.00;100374.00;;;;5020059;28;20380;-71
2022/01/08 02:01:29;;;;;;;18.30;10.07;;;;;1.00;100366.00;;;;5018080;28;20229;-70
2022/01/08 02:04:15;;;;;;;16.30;9.60;;;;;0.90;100378.00;;;;5021116;28;20373;-70
2022/01/08 02:07:03;;;;;;;16.10;9.63;;;;;0.90;100368.00;;;;5003472;28;20222;-71
2022/01/08 02:09:49;;;;;;;18.60;9.47;;;;;0.90;100368.00;;;;5004970;28;20238;-70
2022/01/08 02:12:36;;;;;;;18.57;10.33;;;;;0.90;100370.00;;;;4992038;28;20321;-71
2022/01/08 02:15:22;;;;;;;21.27;10.33;;;;;0.90;100378.00;;;;5000667;28;20229;-71
2022/01/08 02:18:08;;;;;;;18.13;10.37;;;;;0.80;100370.00;;;;5002155;28;20693;-71
2022/01/08 02:20:58;;;;;;;19.20;11.10;;;;;0.80;100370.00;;;;5003000;28;20225;-71
2022/01/08 02:23:44;;;;;;;21.33;10.23;;;;;0.80;100376.00;;;;5013718;28;20225;-71
2022/01/08 02:26:30;;;;;;;19.23;10.27;;;;;0.80;100374.00;;;;4995332;28;20222;-71
2022/01/08 02:29:18;;;;;;;21.53;9.97;;;;;0.70;100384.00;;;;5019301;28;20241;-71
2022/01/08 02:32:06;;;;;;;16.17;10.20;;;;;0.70;100358.00;;;;5014674;28;20623;-69
2022/01/08 02:34:54;;;;;;;17.60;9.47;;;;;0.70;100363.00;;;;5015482;28;20229;-72
2022/01/08 02:37:42;;;;;;;17.60;9.83;;;;;0.70;100358.00;;;;5023800;28;20708;-71
2022/01/08 02:40:28;;;;;;;21.77;10.00;;;;;0.70;100352.00;;;;5017895;28;20319;-72
2022/01/08 02:43:15;;;;;;;17.13;9.37;;;;;0.70;100350.00;;;;5015464;28;20711;-71
2022/01/08 02:46:02;;;;;;;17.93;9.77;;;;;0.70;100350.00;;;;5016622;28;20700;-71
2022/01/08 02:48:48;;;;;;;19.97;10.47;;;;;0.70;100348.00;;;;5010793;28;20633;-71
2022/01/08 02:51:35;;;;;;;17.90;10.40;;;;;0.70;100347.00;;;;5022468;28;20217;-71
2022/01/08 02:54:23;;;;;;;20.73;10.30;;;;;0.70;100341.00;;;;5015650;28;20279;-71
2022/01/08 02:57:09;;;;;;;19.00;9.57;;;;;0.70;100341.00;;;;5006644;28;20222;-71
2022/01/08 02:59:55;;;;;;;21.17;10.13;;;;;0.80;100340.00;;;;5012019;28;20640;-72
2022/01/08 03:02:43;;;;;;;17.33;9.77;;;;;0.70;100344.00;;;;5021262;28;20223;-72
2022/01/08 03:05:29;;;;;;;16.97;9.80;;;;;0.60;100346.00;;;;5019496;28;20217;-71
2022/01/08 03:08:16;;;;;;;17.87;9.03;;;;;0.60;100339.00;;;;5022070;28;20236;-69
2022/01/08 03:11:04;;;;;;;19.00;8.83;;;;;0.60;100340.00;;;;5023412;28;20356;-71
2022/01/08 03:13:50;;;;;;;16.57;9.30;;;;;0.60;100346.00;;;;5025558;28;20747;-70
2022/01/08 03:16:38;;;;;;;19.13;9.97;;;;;0.60;100337.00;;;;5017084;28;20272;-69
2022/01/08 03:19:25;;;;;;;20.47;9.77;;;;;0.70;100341.00;;;;5022876;28;20244;-70
2022/01/08 03:22:12;;;;;;;17.70;9.40;;;;;0.70;100354.00;;;;5025522;28;20303;-70
2022/01/08 03:24:58;;;;;;;17.73;9.33;;;;;0.70;100349.00;;;;5020413;28;20391;-70
2022/01/08 03:27:48;;;;;;;20.67;10.20;;;;;0.70;100344.00;;;;5025183;28;20715;-70
2022/01/08 03:30:35;;;;;;;17.83;9.50;;;;;0.70;100346.00;;;;5023691;28;20598;-69
2022/01/08 03:33:21;;;;;;;17.40;9.80;;;;;0.80;100341.00;;;;5022503;28;20794;-68
2022/01/08 03:36:08;;;;;;;16.03;9.20;;;;;0.70;100336.00;;;;5024585;28;20244;-70
2022/01/08 03:38:54;;;;;;;17.87;9.53;;;;;0.70;100342.00;;;;5024507;28;20237;-69
2022/01/08 03:41:42;;;;;;;19.03;10.33;;;;;0.70;100353.00;;;;5034680;28;20271;-69
2022/01/08 03:44:30;;;;;;;18.30;9.23;;;;;0.60;100348.00;;;;5025612;28;20233;-70
2022/01/08 03:47:29;;;;;;;16.33;9.43;;;;;0.60;100361.00;;;;5021171;28;20221;-72
2022/01/08 03:50:16;;;;;;;16.33;10.03;;;;;0.50;100361.00;;;;5021189;28;20228;-70
2022/01/08 03:53:02;;;;;;;17.20;9.20;;;;;0.50;100365.00;;;;5019327;28;20236;-70
2022/01/08 03:55:49;;;;;;;16.63;8.87;;;;;0.50;100356.00;;;;5022212;28;20225;-71
2022/01/08 03:58:35;;;;;;;18.43;9.30;;;;;0.50;100369.00;;;;5027989;28;20229;-70
2022/01/08 04:01:22;;;;;;;19.60;9.17;;;;;0.50;100365.00;;;;5029028;28;20267;-69
2022/01/08 04:04:09;;;;;;;23.93;10.23;;;;;0.40;100379.00;;;;5028811;28;20237;-69
2022/01/08 04:06:55;;;;;;;16.63;9.50;;;;;0.40;100384.00;;;;5023003;28;20233;-69
2022/01/08 04:09:41;;;;;;;15.80;9.63;;;;;0.50;100392.00;;;;5027578;28;20300;-69
2022/01/08 04:12:35;;;;;;;17.67;9.60;;;;;0.40;100396.00;;;;5017287;28;20700;-69
2022/01/08 04:18:26;;;;;;;22.03;9.80;;;;;0.50;100407.00;;;;5007421;28;20366;-69
2022/01/08 04:21:44;;;;;;;20.23;10.10;;;;;0.50;100401.00;;;;5005977;28;20277;-69
2022/01/08 04:24:23;;;;;;;17.37;9.73;;;;;0.50;100408.00;;;;5006253;28;20265;-69
2022/01/08 04:27:10;;;;;;;19.57;10.40;;;;;0.50;100418.00;;;;5008919;28;20261;-68
2022/01/08 04:29:56;;;;;;;22.20;9.43;;;;;0.40;100422.00;;;;5003281;28;20292;-69
2022/01/08 04:32:42;;;;;;;17.33;9.87;;;;;0.40;100421.00;;;;5008215;28;20583;-71
2022/01/08 04:35:30;;;;;;;13.80;8.43;;;;;0.40;100422.00;;;;5010060;28;20225;-70
2022/01/08 04:38:16;;;;;;;17.83;9.47;;;;;0.40;100429.00;;;;5011386;28;20233;-70
2022/01/08 04:41:03;;;;;;;22.40;10.67;;;;;0.50;100427.00;;;;5007277;28;20225;-70
2022/01/08 04:43:49;;;;;;;22.23;10.70;;;;;0.40;100430.00;;;;5007145;28;20844;-69
2022/01/08 04:46:35;;;;;;;20.13;10.33;;;;;0.40;100431.00;;;;5008532;28;20241;-69
2022/01/08 04:49:21;;;;;;;21.37;9.93;;;;;0.50;100429.00;;;;5005794;28;20751;-70
2022/01/08 04:52:09;;;;;;;20.57;11.43;;;;;0.40;100434.00;;;;5007177;28;20759;-70
2022/01/08 04:54:56;;;;;;;20.73;10.30;;;;;0.50;100428.00;;;;5019246;28;20242;-69
2022/01/08 04:57:42;;;;;;;18.73;9.43;;;;;0.40;100439.00;;;;5019333;28;20763;-69
2022/01/08 05:00:28;;;;;;;21.80;10.37;;;;;0.40;100432.00;;;;5026818;28;20374;-70
2022/01/08 05:03:15;;;;;;;20.87;11.00;;;;;0.40;100425.00;;;;5021267;28;20248;-69
2022/01/08 05:06:02;;;;;;;16.87;10.73;;;;;0.40;100431.00;;;;5021912;28;20229;-69
2022/01/08 05:08:49;;;;;;;18.30;10.70;;;;;0.40;100436.00;;;;5022150;28;20766;-69
2022/01/08 05:11:35;;;;;;;26.30;10.77;;;;;0.40;100428.00;;;;5034713;28;20228;-69
2022/01/08 05:14:22;;;;;;;22.03;11.23;;;;;0.50;100435.00;;;;5027873;28;20233;-70
2022/01/08 05:17:08;;;;;;;18.87;10.60;;;;;0.40;100449.00;;;;5026219;28;20229;-69
2022/01/08 05:19:58;;;;;;;18.23;10.53;;;;;0.40;100451.00;;;;5022738;28;20233;-70
2022/01/08 05:22:52;;;;;;;19.30;9.90;;;;;0.40;100436.00;;;;5019780;28;20229;-69
2022/01/08 05:25:39;;;;;;;22.60;10.73;;;;;0.30;100438.00;;;;5027858;28;20605;-69
2022/01/08 05:28:26;;;;;;;17.37;9.77;;;;;0.40;100448.00;;;;5027790;28;20233;-68
2022/01/08 05:31:15;;;;;;;18.10;10.20;;;;;0.40;100437.00;;;;5027909;28;20590;-68
2022/01/08 05:34:04;;;;;;;16.97;10.10;;;;;0.30;100446.00;;;;5024684;28;20237;-69
2022/01/08 05:36:51;;;;;;;19.80;11.00;;;;;0.30;100444.00;;;;5027916;28;20431;-69
2022/01/08 05:39:37;;;;;;;16.70;9.80;;;;;0.30;100443.00;;;;5026525;28;20229;-69
2022/01/08 05:42:25;;;;;;;21.53;10.43;;;;;0.30;100445.00;;;;5026919;28;20388;-69
2022/01/08 05:45:12;;;;;;;18.23;9.80;;;;;0.30;100454.00;;;;5027338;28;20245;-69
2022/01/08 05:47:58;;;;;;;19.37;10.77;;;;;0.40;100452.00;;;;5021452;28;20228;-69
2022/01/08 05:50:44;;;;;;;17.73;9.80;;;;;0.40;100456.00;;;;5021779;28;20268;-69
2022/01/08 05:53:31;;;;;;;20.70;10.83;;;;;0.40;100451.00;;;;5026041;28;20291;-69
2022/01/08 05:56:17;;;;;;;20.43;10.80;;;;;0.60;100452.00;;;;5026952;28;20712;-69
2022/01/08 05:59:05;;;;;;;18.70;9.93;;;;;0.50;100442.00;;;;5021779;28;20275;-69
2022/01/08 06:01:51;;;;;;;22.37;10.97;;;;;0.50;100445.00;;;;5026953;28;20659;-69
2022/01/08 06:04:38;;;;;;;19.50;10.30;;;;;0.50;100435.00;;;;5025161;28;20357;-69
2022/01/08 06:07:25;;;;;;;18.33;10.67;;;;;0.40;100447.00;;;;5024545;28;20233;-68
2022/01/08 06:10:11;;;;;;;20.53;10.27;;;;;0.40;100462.00;;;;5027006;28;20276;-69
2022/01/08 06:12:58;;;;;;;21.87;9.50;;;;;0.40;100465.00;;;;5021179;28;20355;-69
2022/01/08 06:15:45;;;;;;;25.10;10.43;;;;;0.40;100462.00;;;;5026651;28;20229;-69
2022/01/08 06:18:32;;;;;;;23.33;10.97;;;;;0.40;100468.00;;;;5019655;28;20236;-69
2022/01/08 06:21:18;;;;;;;23.77;9.87;;;;;0.30;100476.00;;;;5023208;28;20245;-69
2022/01/08 06:24:05;;;;;;;15.77;9.73;;;;;0.30;100483.00;;;;5026623;28;20232;-69
2022/01/08 06:26:52;;;;;;;21.83;11.57;;;;;0.20;100476.00;;;;5019927;28;20233;-68
2022/01/08 06:29:38;;;;;;;19.90;10.30;;;;;0.20;100476.00;;;;5025604;28;20320;-68
2022/01/08 06:32:25;;;;;;;25.60;10.50;;;;;0.10;100465.00;;;;5025939;28;20786;-69
2022/01/08 06:35:12;;;;;;;22.50;10.30;;;;;0.20;100472.00;;;;5026597;28;20237;-67
2022/01/08 06:37:58;;;;;;;25.00;12.47;;;;;0.20;100464.00;;;;5037556;28;20276;-69
2022/01/08 06:40:45;;;;;;;19.13;10.47;;;;;0.20;100474.00;;;;5039672;28;20236;-69
2022/01/08 06:43:31;;;;;;;19.97;10.87;;;;;0.20;100487.00;;;;5048543;28;20225;-70
2022/01/08 06:46:18;;;;;;;22.87;12.07;;;;;0.20;100481.00;;;;5046775;28;20305;-69
2022/01/08 06:49:05;;;;;;;21.20;10.53;;;;;0.10;100491.00;;;;5036173;28;20248;-69
2022/01/08 06:51:52;;;;;;;20.00;10.23;;;;;0.10;100489.00;;;;5042126;28;20249;-69
2022/01/08 06:54:38;;;;;;;19.27;11.40;;;;;0.00;100503.00;;;;5036308;28;20317;-70
2022/01/08 06:57:25;;;;;;;21.40;11.63;;;;;0.10;100504.00;;;;5031077;28;20260;-71
2022/01/08 07:00:11;;;;;;;20.37;10.83;;;;;0.10;100518.00;;;;5027079;28;20228;-70
2022/01/08 07:02:59;;;;;;;22.93;10.67;;;;;0.10;100496.00;;;;5028671;28;20260;-71
2022/01/08 07:05:47;;;;;;;23.77;10.77;;;;;0.10;100518.00;;;;5019752;28;20288;-71
2022/01/08 07:08:33;;;;;;;23.33;12.00;;;;;0.10;100513.00;;;;5021279;28;20233;-71
2022/01/08 07:11:20;;;;;;;21.50;11.57;;;;;0.10;100510.00;;;;5022710;28;20228;-69
2022/01/08 07:14:06;;;;;;;25.17;12.23;;;;;0.10;100513.00;;;;5026051;28;20341;-70
2022/01/08 07:16:54;;;;;;;25.30;11.97;;;;;0.10;100515.00;;;;5022351;28;20336;-69
2022/01/08 07:19:41;;;;;;;23.23;12.00;;;;;0.20;100516.00;;;;5025204;28;20383;-70
2022/01/08 07:22:29;;;;;;;21.10;11.67;;;;;0.00;100512.00;;;;5025425;28;20299;-70
2022/01/08 07:25:15;;;;;;;25.63;11.97;;;;;0.00;100520.00;;;;5020501;28;20233;-70
2022/01/08 07:28:01;;;;;;;21.53;12.53;;;;;0.00;100521.00;;;;5021933;28;20275;-70
2022/01/08 07:30:47;;;;;;;20.37;11.13;;;;;0.00;100519.00;;;;5032035;28;20230;-69
2022/01/08 07:33:33;;;;;;;28.30;13.17;;;;;0.10;100523.00;;;;5031332;28;20224;-70
2022/01/08 07:36:20;;;;;;;23.10;12.70;;;;;0.10;100523.00;;;;5031964;28;20236;-70
2022/01/08 07:39:08;;;;;;;26.43;11.87;;;;;0.10;100522.00;;;;5025786;28;20233;-71
2022/01/08 07:41:54;;;;;;;21.77;11.73;;;;;0.10;100528.00;;;;5025475;28;20229;-70
2022/01/08 07:44:40;;;;;;;25.83;12.43;;;;;0.00;100528.00;;;;5031530;28;20228;-69
2022/01/08 07:47:27;;;;;;;26.27;11.93;;;;;0.10;100524.00;;;;5031914;28;20701;-70
2022/01/08 07:50:14;;;;;;;25.13;12.07;;;;;0.10;100535.00;;;;5022423;28;20610;-70
2022/01/08 07:53:01;;;;;;;28.73;11.93;;;;;0.20;100527.00;;;;5030283;28;20236;-72
2022/01/08 07:55:48;;;;;;;20.57;10.90;;;;;0.30;100533.00;;;;5022027;28;20237;-70
2022/01/08 07:58:34;;;;;;;25.17;12.70;;;;;0.30;100538.00;;;;5030795;28;20236;-69
2022/01/08 08:01:21;;;;;;;26.67;13.23;;;;;0.20;100533.00;;;;5031263;28;20241;-69
2022/01/08 08:04:08;;;;;;;21.47;12.37;;;;;0.30;100533.00;;;;5031624;28;20762;-69
2022/01/08 08:06:54;;;;;;;18.93;11.53;;;;;0.40;100533.00;;;;5025359;28;20220;-69
2022/01/08 08:09:40;;;;;;;27.67;13.40;;;;;0.60;100535.00;;;;5031996;28;20307;-69
2022/01/08 08:12:28;;;;;;;22.40;12.20;;;;;0.60;100535.00;;;;5031902;28;20743;-70
2022/01/08 08:15:15;;;;;;;28.93;12.40;;;;;0.60;100511.00;;;;5032184;28;20253;-69
2022/01/08 08:18:02;;;;;;;23.70;12.87;;;;;0.60;100533.00;;;;5030312;28;20710;-70
2022/01/08 08:20:48;;;;;;;23.83;12.53;;;;;0.80;100530.00;;;;5031306;28;20232;-68
2022/01/08 08:23:34;;;;;;;22.50;12.87;;;;;0.80;100520.00;;;;5031376;28;20237;-68
2022/01/08 08:26:21;;;;;;;34.60;14.27;;;;;0.80;100523.00;;;;5032048;28;20248;-69
2022/01/08 08:29:08;;;;;;;24.63;13.37;;;;;0.90;100522.00;;;;5027065;28;20271;-69
2022/01/08 08:31:54;;;;;;;26.60;14.37;;;;;1.00;100497.00;;;;5031435;28;20228;-70
2022/01/08 08:34:41;;;;;;;25.47;13.73;;;;;1.10;100520.00;;;;5031126;28;20221;-72
2022/01/08 08:37:28;;;;;;;27.17;13.23;;;;;1.30;100513.00;;;;5025526;28;20933;-70
2022/01/08 08:40:15;;;;;;;29.67;13.77;;;;;1.20;100502.00;;;;5025360;28;20245;-70
2022/01/08 08:43:01;;;;;;;22.40;12.57;;;;;1.20;100493.00;;;;5022735;28;20283;-72
2022/01/08 08:45:49;;;;;;;27.53;14.13;;;;;1.30;100507.00;;;;5023110;28;20250;-71
2022/01/08 08:48:35;;;;;;;28.03;14.23;;;;;1.20;100479.00;;;;5025783;28;20232;-69
2022/01/08 08:51:22;;;;;;;31.07;15.33;;;;;1.20;100494.00;;;;5041171;28;20277;-69
2022/01/08 08:54:08;;;;;;;25.90;13.03;;;;;1.30;100486.00;;;;5028342;28;20280;-69
2022/01/08 08:56:54;;;;;;;34.40;13.97;;;;;1.30;100483.00;;;;5021730;28;20237;-69
2022/01/08 08:59:41;;;;;;;32.07;14.10;;;;;1.30;100501.00;;;;5027810;28;20267;-69
2022/01/08 09:02:28;;;;;;;29.37;15.40;;;;;1.30;100500.00;;;;5028162;28;20324;-70
2022/01/08 09:05:14;;;;;;;30.50;14.67;;;;;1.30;100497.00;;;;5017416;28;20577;-69
2022/01/08 09:08:03;;;;;;;25.93;14.30;;;;;1.40;100491.00;;;;5026056;28;20232;-69
2022/01/08 09:10:50;;;;;;;33.73;15.97;;;;;1.50;100499.00;;;;5020550;28;20225;-69
2022/01/08 09:13:36;;;;;;;25.13;15.20;;;;;1.50;100460.00;;;;5019012;28;20221;-70
2022/01/08 09:16:22;;;;;;;28.37;15.90;;;;;1.60;100500.00;;;;5020079;28;20308;-70
2022/01/08 09:19:10;;;;;;;48.20;19.33;;;;;1.90;100499.00;;;;5020921;28;20609;-71
2022/01/08 09:21:57;;;;;;;41.97;19.53;;;;;1.80;100496.00;;;;5021787;28;20233;-71
2022/01/08 09:24:44;;;;;;;41.57;20.97;;;;;1.80;100503.00;;;;5017922;28;20229;-71
2022/01/08 09:27:30;;;;;;;44.03;19.87;;;;;1.90;100498.00;;;;5023193;28;20220;-70
2022/01/08 09:30:17;;;;;;;54.40;20.90;;;;;2.00;100490.00;;;;5015106;28;20289;-71
2022/01/08 09:33:04;;;;;;;56.93;24.23;;;;;1.90;100488.00;;;;5028046;28;20228;-71
2022/01/08 09:35:52;;;;;;;53.20;22.87;;;;;1.90;100483.00;;;;5027400;28;20233;-71
2022/01/08 09:38:38;;;;;;;44.70;20.53;;;;;2.10;100487.00;;;;5018535;28;20234;-71
2022/01/08 09:41:24;;;;;;;51.67;22.70;;;;;2.20;100484.00;;;;5024919;28;20228;-71
2022/01/08 09:44:12;;;;;;;58.13;22.67;;;;;2.20;100468.00;;;;5027126;28;20360;-70
2022/01/08 09:46:58;;;;;;;51.33;22.40;;;;;2.20;100477.00;;;;5021834;28;20224;-70
2022/01/08 09:49:44;;;;;;;47.87;21.00;;;;;2.10;100482.00;;;;5018803;28;20327;-69
2022/01/08 09:52:32;;;;;;;51.97;20.87;;;;;2.10;100488.00;;;;5006293;28;20281;-71
2022/01/08 09:55:19;;;;;;;47.57;22.07;;;;;1.90;100483.00;;;;5007364;28;20357;-70
2022/01/08 09:58:05;;;;;;;43.97;20.47;;;;;1.90;100484.00;;;;5007502;28;20282;-72
2022/01/08 10:00:52;;;;;;;42.27;19.80;;;;;2.00;100479.00;;;;4995447;28;20235;-71
2022/01/08 10:03:38;;;;;;;45.77;20.57;;;;;2.10;100474.00;;;;5017769;28;20313;-71
2022/01/08 10:06:27;;;;;;;50.10;21.10;;;;;2.00;100473.00;;;;5019807;28;20225;-71
2022/01/08 10:09:14;;;;;;;49.70;22.93;;;;;2.20;100454.00;;;;5015153;28;20308;-70
2022/01/08 10:12:01;;;;;;;52.13;22.30;;;;;2.30;100456.00;;;;5014881;28;20296;-71
2022/01/08 10:17:47;;;;;;;60.80;22.57;;;;;2.30;100443.00;;;;5024550;28;20284;-71
2022/01/08 10:20:36;;;;;;;50.07;22.53;;;;;2.50;100434.00;;;;5025517;28;20712;-68
2022/01/08 10:23:24;;;;;;;62.73;23.37;;;;;2.50;100422.00;;;;5023648;28;20230;-72
2022/01/08 10:26:14;;;;;;;44.37;21.07;;;;;2.40;100424.00;;;;5017605;28;20738;-71
2022/01/08 10:29:02;;;;;;;53.20;21.13;;;;;2.40;100420.00;;;;5013731;28;20751;-71
2022/01/08 10:31:51;;;;;;;54.13;23.50;;;;;2.60;100406.00;;;;5018579;28;20309;-70
2022/01/08 10:34:38;;;;;;;55.03;23.13;;;;;2.70;100404.00;;;;5021377;28;20740;-69
2022/01/08 10:37:25;;;;;;;55.37;22.97;;;;;2.70;100394.00;;;;5019966;28;20236;-70
2022/01/08 10:40:11;;;;;;;48.67;21.53;;;;;2.60;100385.00;;;;5037424;28;20357;-70
2022/01/08 10:42:59;;;;;;;46.83;21.77;;;;;2.70;100377.00;;;;5018106;28;20301;-70
2022/01/08 10:45:45;;;;;;;46.47;19.97;;;;;2.80;100377.00;;;;5019831;28;20222;-70
2022/01/08 10:48:32;;;;;;;40.10;19.93;;;;;2.80;100377.00;;;;5023484;28;20242;-69
2022/01/08 10:51:23;;;;;;;45.87;20.63;;;;;2.80;100377.00;;;;5022192;28;20327;-71
2022/01/08 10:54:12;;;;;;;47.13;20.77;;;;;2.80;100360.00;;;;5024984;28;20233;-70
2022/01/08 10:57:01;;;;;;;46.43;20.30;;;;;2.80;100365.00;;;;5015532;28;20241;-70
2022/01/08 10:59:56;;;;;;;43.80;18.67;;;;;2.70;100351.00;;;;5033184;28;20367;-70
2022/01/08 11:02:44;;;;;;;43.20;18.07;;;;;2.80;100347.00;;;;5025056;28;20226;-71
2022/01/08 11:05:32;;;;;;;43.60;17.37;;;;;2.80;100339.00;;;;5019329;28;20231;-70
2022/01/08 11:08:18;;;;;;;48.07;18.30;;;;;2.80;100333.00;;;;5017974;28;20245;-69
2022/01/08 11:11:05;;;;;;;51.17;19.73;;;;;2.80;100323.00;;;;5023614;28;20296;-72
2022/01/08 11:13:53;;;;;;;37.20;17.50;;;;;3.00;100305.00;;;;5019164;28;20276;-73
2022/01/08 11:16:40;;;;;;;41.20;17.60;;;;;3.10;100286.00;;;;5025572;28;20359;-73
2022/01/08 11:19:28;;;;;;;35.37;17.13;;;;;2.90;100284.00;;;;5025281;28;20241;-71
2022/01/08 11:22:17;;;;;;;37.03;16.43;;;;;3.10;100283.00;;;;5025844;28;20719;-71
2022/01/08 11:25:07;;;;;;;42.47;17.83;;;;;3.20;100281.00;;;;5025599;28;20237;-71
2022/01/08 11:28:00;;;;;;;44.03;18.20;;;;;3.10;100268.00;;;;5023105;28;20387;-71
2022/01/08 11:30:48;;;;;;;41.40;18.57;;;;;3.20;100269.00;;;;5024991;28;20233;-70
2022/01/08 11:33:37;;;;;;;46.57;16.93;;;;;3.20;100279.00;;;;5025001;28;20719;-70
2022/01/08 11:36:25;;;;;;;36.63;16.00;;;;;3.30;100269.00;;;;5024584;28;20368;-72
2022/01/08 11:39:12;;;;;;;31.60;15.67;;;;;3.30;100262.00;;;;5020496;28;20241;-72
2022/01/08 11:41:58;;;;;;;41.90;16.20;;;;;3.20;100260.00;;;;5021633;28;20283;-73
2022/01/08 11:44:45;;;;;;;35.13;15.43;;;;;3.40;100253.00;;;;5026412;28;20733;-74
2022/01/08 11:47:31;;;;;;;30.67;14.40;;;;;3.40;100246.00;;;;5025647;28;20236;-73
2022/01/08 11:50:23;;;;;;;30.70;13.57;;;;;3.60;100243.00;;;;5024100;28;20224;-71
2022/01/08 11:53:15;;;;;;;30.50;12.73;;;;;3.70;100226.00;;;;5022596;28;20229;-70
2022/01/08 11:56:03;;;;;;;32.50;12.40;;;;;3.90;100220.00;;;;5017528;28;20637;-71
2022/01/08 11:59:04;;;;;;;30.83;12.43;;;;;3.90;100214.00;;;;5017850;28;20237;-74
2022/01/08 12:02:05;;;;;;;34.77;13.07;;;;;4.00;100202.00;;;;5025100;28;20360;-74
2022/01/08 12:04:53;;;;;;;28.33;10.87;;;;;4.00;100197.00;;;;5023316;28;20233;-72
2022/01/08 12:07:45;;;;;;;21.27;10.10;;;;;4.10;100189.00;;;;5012892;28;20297;-75
2022/01/08 12:10:31;;;;;;;28.00;10.87;;;;;4.20;100184.00;;;;5022320;28;20233;-74
2022/01/08 12:13:42;;;;;;;24.77;10.43;;;;;4.20;100188.00;;;;5021731;28;20842;-75
2022/01/08 12:16:33;;;;;;;35.67;10.67;;;;;4.20;100170.00;;;;5026401;28;20608;-74
2022/01/08 12:19:34;;;;;;;22.13;9.20;;;;;4.20;100166.00;;;;5028859;28;20236;-75
2022/01/08 12:22:32;;;;;;;23.87;9.17;;;;;4.20;100163.00;;;;5025826;28;20272;-73
2022/01/08 12:25:40;;;;;;;22.23;8.47;;;;;4.30;100157.00;;;;5029133;28;20236;-75
2022/01/08 12:28:41;;;;;;;19.60;8.50;;;;;4.30;100147.00;;;;5026113;28;20732;-74
2022/01/08 12:31:39;;;;;;;13.07;6.50;;;;;4.40;100148.00;;;;5028817;28;20307;-75
2022/01/08 12:34:43;;;;;;;15.50;6.70;;;;;4.30;100147.00;;;;5026564;28;20325;-76
2022/01/08 12:37:37;;;;;;;13.27;5.93;;;;;4.30;100128.00;;;;5025850;28;20280;-74
2022/01/08 12:40:45;;;;;;;19.13;6.57;;;;;4.20;100125.00;;;;5040290;28;20229;-74
2022/01/08 12:43:34;;;;;;;16.83;6.80;;;;;4.30;100117.00;;;;5026883;28;20232;-75
2022/01/08 12:46:23;;;;;;;13.60;6.80;;;;;4.20;100110.00;;;;5025837;28;20229;-76
2022/01/08 12:49:14;;;;;;;9.53;4.80;;;;;4.20;100112.00;;;;5022711;28;20304;-75
2022/01/08 12:52:09;;;;;;;14.00;5.80;;;;;4.30;100078.00;;;;5023079;28;20295;-75
2022/01/08 12:54:55;;;;;;;14.23;5.63;;;;;4.20;100091.00;;;;5028103;28;20237;-72
2022/01/08 12:57:43;;;;;;;12.93;5.43;;;;;4.20;100069.00;;;;5027084;28;20232;-74
2022/01/08 13:00:29;;;;;;;15.17;4.60;;;;;4.20;100063.00;;;;5027562;28;20233;-73
2022/01/08 13:03:15;;;;;;;10.03;4.30;;;;;4.20;100046.00;;;;5000823;28;20256;-74
2022/01/08 13:06:05;;;;;;;11.73;4.83;;;;;4.30;100031.00;;;;4995757;28;20635;-72
2022/01/08 13:08:53;;;;;;;10.80;4.70;;;;;4.40;99994.00;;;;5021226;28;20240;-70
2022/01/08 13:11:42;;;;;;;9.87;4.60;;;;;4.50;100021.00;;;;5022532;28;20245;-74
2022/01/08 13:14:30;;;;;;;10.23;4.20;;;;;4.50;100010.00;;;;5015612;28;20293;-73
2022/01/08 13:17:23;;;;;;;8.53;3.97;;;;;4.50;99994.00;;;;5022005;28;20234;-70
2022/01/08 13:20:10;;;;;;;8.83;3.70;;;;;4.50;99997.00;;;;5029015;28;20812;-74
2022/01/08 13:22:56;;;;;;;12.27;3.50;;;;;4.50;99995.00;;;;5021049;28;20228;-74
2022/01/08 13:25:52;;;;;;;10.73;3.73;;;;;4.50;99986.00;;;;5023787;28;20632;-73
2022/01/08 13:28:39;;;;;;;6.77;3.53;;;;;4.50;99999.00;;;;5024365;28;20731;-73
2022/01/08 13:31:49;;;;;;;7.20;3.33;;;;;4.50;99970.00;;;;5019673;28;20233;-72
2022/01/08 13:34:37;;;;;;;9.70;3.20;;;;;4.60;99972.00;;;;5016952;28;20260;-74
2022/01/08 13:37:26;;;;;;;8.97;3.60;;;;;4.50;99961.00;;;;5018600;28;20225;-72
2022/01/08 13:40:12;;;;;;;7.40;3.27;;;;;4.40;99966.00;;;;5014979;28;20234;-72
2022/01/08 13:42:59;;;;;;;8.33;3.13;;;;;4.50;99947.00;;;;5027254;28;20628;-72
2022/01/08 13:45:52;;;;;;;6.07;3.30;;;;;4.70;99925.00;;;;5021154;28;20229;-73
2022/01/08 13:48:40;;;;;;;11.87;4.70;;;;;4.60;99930.00;;;;5016456;28;20323;-71
2022/01/08 13:51:28;;;;;;;7.40;3.20;;;;;4.50;99924.00;;;;5013669;28;20226;-74
2022/01/08 13:54:14;;;;;;;7.73;3.47;;;;;4.50;99914.00;;;;5024456;28;20352;-75
2022/01/08 13:57:11;;;;;;;10.10;3.33;;;;;4.50;99898.00;;;;5021470;28;20616;-72
2022/01/08 14:00:11;;;;;;;9.03;3.07;;;;;4.60;99885.00;;;;5027414;28;20237;-70
2022/01/08 14:02:59;;;;;;;3.77;2.97;;;;;4.80;99878.00;;;;5020652;28;20759;-71
2022/01/08 14:05:47;;;;;;;7.73;3.37;;;;;4.70;99880.00;;;;5014112;28;20601;-73